Time;durP1;ratioP1;P1;durP2;ratioP2;P2;SDS_P1;SDS_P2;PMS_P1;PMS_P2;Temp;Humidity;BMP_temperature;BMP_pressure;BME280_temperature;BME280_humidity;BME280_pressure;Samples;Min_cycle;Max_cycle;Signal;HPM_P1;HPM_P2
2023/05/29 00:01:25;;;;;;;4.72;1.30;;;21.70;55.20;;;;;;5072069;28;20123;-61
2023/05/29 00:03:51;;;;;;;6.18;1.73;;;21.70;55.20;;;;;;5072344;28;20064;-61
2023/05/29 00:06:18;;;;;;;6.30;1.40;;;21.70;55.20;;;;;;5070967;28;20499;-61
2023/05/29 00:08:44;;;;;;;5.70;1.42;;;21.70;55.30;;;;;;5072400;28;20045;-61
2023/05/29 00:11:09;;;;;;;5.10;1.50;;;21.70;55.30;;;;;;5071828;28;20060;-61
2023/05/29 00:13:35;;;;;;;5.65;1.42;;;21.70;55.30;;;;;;5071541;28;20557;-61
2023/05/29 00:16:00;;;;;;;6.40;1.33;;;21.70;55.30;;;;;;5071979;28;20041;-61
2023/05/29 00:18:27;;;;;;;4.57;1.40;;;21.70;55.30;;;;;;5074560;28;20063;-61
2023/05/29 00:20:53;;;;;;;6.72;1.38;;;21.70;55.30;;;;;;5074924;28;20055;-61
2023/05/29 00:23:19;;;;;;;4.70;1.55;;;21.70;55.30;;;;;;5075637;28;20063;-61
2023/05/29 00:25:44;;;;;;;6.00;1.52;;;21.70;55.30;;;;;;5075115;28;20032;-61
2023/05/29 00:28:11;;;;;;;4.10;1.30;;;21.60;55.30;;;;;;5073791;28;20471;-61
2023/05/29 00:30:37;;;;;;;6.80;1.58;;;21.60;55.30;;;;;;5075885;28;20045;-61
2023/05/29 00:33:03;;;;;;;3.90;1.10;;;21.60;55.30;;;;;;5075076;28;20408;-61
2023/05/29 00:35:28;;;;;;;3.95;1.40;;;21.60;55.30;;;;;;5075313;28;20040;-61
2023/05/29 00:37:54;;;;;;;4.18;1.10;;;21.60;55.30;;;;;;5075710;28;20098;-61
2023/05/29 00:40:19;;;;;;;4.55;1.25;;;21.60;55.30;;;;;;5074682;28;20029;-61
2023/05/29 00:42:45;;;;;;;4.53;1.13;;;21.60;55.30;;;;;;5075557;28;20052;-61
2023/05/29 00:45:12;;;;;;;5.97;1.25;;;21.60;55.30;;;;;;5075358;28;20049;-61
2023/05/29 00:47:39;;;;;;;4.40;1.58;;;21.60;55.30;;;;;;5074828;28;20052;-61
2023/05/29 00:50:05;;;;;;;3.97;1.10;;;21.60;55.30;;;;;;5073922;28;20043;-61
2023/05/29 00:52:30;;;;;;;3.53;1.10;;;21.60;55.30;;;;;;5073949;28;20055;-61
2023/05/29 00:54:56;;;;;;;4.47;1.25;;;21.60;55.30;;;;;;5073148;28;20044;-61
2023/05/29 00:57:22;;;;;;;4.00;1.40;;;21.60;55.30;;;;;;5073863;28;20052;-61
2023/05/29 00:59:48;;;;;;;4.22;1.40;;;21.60;55.30;;;;;;5075342;28;20076;-61
2023/05/29 01:02:14;;;;;;;6.90;1.45;;;21.50;55.30;;;;;;5073024;28;20091;-61
2023/05/29 01:04:39;;;;;;;4.60;1.35;;;21.50;55.30;;;;;;5074035;28;20052;-61
2023/05/29 01:07:06;;;;;;;6.10;1.30;;;21.50;55.30;;;;;;5056982;28;20044;-61
2023/05/29 01:09:34;;;;;;;3.47;1.00;;;21.50;55.30;;;;;;5074470;28;20052;-61
2023/05/29 01:12:33;;;;;;;4.40;1.33;;;21.50;55.30;;;;;;5075185;28;20515;-61
2023/05/29 01:15:29;;;;;;;3.42;1.13;;;21.50;55.30;;;;;;5074225;28;20153;-61
2023/05/29 01:18:18;;;;;;;4.85;1.40;;;21.50;55.30;;;;;;5074113;28;20056;-61
2023/05/29 01:20:59;;;;;;;3.78;1.13;;;21.50;55.30;;;;;;5073895;28;20044;-61
2023/05/29 01:23:42;;;;;;;4.60;1.08;;;21.50;55.30;;;;;;5073836;28;20032;-61
2023/05/29 01:26:12;;;;;;;4.57;1.30;;;21.50;55.40;;;;;;5074290;28;20045;-61
2023/05/29 01:28:44;;;;;;;4.05;1.20;;;21.50;55.40;;;;;;5074176;28;20069;-60
2023/05/29 01:31:10;;;;;;;4.60;1.40;;;21.50;55.40;;;;;;5072567;28;20045;-61
2023/05/29 01:33:40;;;;;;;5.65;1.23;;;21.50;55.40;;;;;;5074468;28;20514;-61
2023/05/29 01:36:09;;;;;;;5.60;1.30;;;21.50;55.40;;;;;;5073317;28;20446;-61
2023/05/29 01:38:35;;;;;;;5.78;1.25;;;21.40;55.30;;;;;;5074440;28;20036;-61
2023/05/29 01:41:00;;;;;;;4.63;1.20;;;21.40;55.40;;;;;;5074125;28;20615;-61
2023/05/29 01:43:26;;;;;;;6.85;1.42;;;21.40;55.30;;;;;;5073610;28;20131;-61
2023/05/29 01:45:52;;;;;;;4.97;1.63;;;21.40;55.40;;;;;;5073203;28;20082;-61
2023/05/29 01:48:17;;;;;;;4.30;1.27;;;21.40;55.40;;;;;;5072663;28;20041;-61
2023/05/29 01:50:43;;;;;;;6.43;1.38;;;21.40;55.30;;;;;;5072288;28;20036;-61
2023/05/29 01:53:09;;;;;;;3.38;1.10;;;21.40;55.40;;;;;;5072810;28;20044;-61
2023/05/29 01:55:35;;;;;;;4.68;1.17;;;21.40;55.40;;;;;;5073975;28;20090;-61
2023/05/29 01:58:01;;;;;;;4.07;1.10;;;21.40;55.40;;;;;;5073254;28;20448;-61
2023/05/29 02:00:27;;;;;;;5.40;1.13;;;21.40;55.40;;;;;;5072620;28;20045;-61
2023/05/29 02:02:52;;;;;;;5.95;1.85;;;21.40;55.40;;;;;;5072921;28;20033;-61
2023/05/29 02:05:18;;;;;;;4.32;1.25;;;21.40;55.40;;;;;;5070760;28;20503;-61
2023/05/29 02:07:43;;;;;;;4.65;1.35;;;21.40;55.40;;;;;;5073718;28;20131;-61
2023/05/29 02:10:09;;;;;;;4.28;1.00;;;21.40;55.40;;;;;;5073582;28;20476;-61
2023/05/29 02:12:35;;;;;;;3.10;0.90;;;21.30;55.30;;;;;;5073374;28;20036;-61
2023/05/29 02:15:01;;;;;;;3.97;1.27;;;21.40;55.40;;;;;;5073872;28;20052;-61
2023/05/29 02:17:26;;;;;;;4.30;1.15;;;21.30;55.30;;;;;;5073407;28;20120;-61
2023/05/29 02:19:52;;;;;;;6.00;1.15;;;21.30;55.30;;;;;;5072966;28;20109;-61
2023/05/29 02:22:17;;;;;;;4.30;1.10;;;21.30;55.30;;;;;;5073238;28;20069;-61
2023/05/29 02:24:43;;;;;;;5.00;1.15;;;21.30;55.30;;;;;;5073479;28;20105;-61
2023/05/29 02:27:09;;;;;;;4.57;1.05;;;21.30;55.30;;;;;;5072387;28;20052;-61
2023/05/29 02:29:34;;;;;;;4.05;1.30;;;21.30;55.30;;;;;;5073591;28;20047;-61
2023/05/29 02:32:00;;;;;;;5.65;1.40;;;21.30;55.30;;;;;;5073611;28;20041;-61
2023/05/29 02:34:26;;;;;;;5.70;1.25;;;21.30;55.40;;;;;;5071032;28;20483;-61
2023/05/29 02:36:52;;;;;;;4.55;1.30;;;21.30;55.30;;;;;;5073410;28;20058;-61
2023/05/29 02:39:18;;;;;;;6.00;1.15;;;21.30;55.40;;;;;;5071094;28;20119;-61
2023/05/29 02:41:44;;;;;;;5.07;1.00;;;21.30;55.40;;;;;;5072866;28;20044;-61
2023/05/29 02:44:09;;;;;;;5.45;1.10;;;21.30;55.40;;;;;;5073028;28;20043;-61
2023/05/29 02:46:35;;;;;;;4.90;1.05;;;21.30;55.40;;;;;;5072367;28;20134;-61
2023/05/29 02:49:00;;;;;;;3.72;1.00;;;21.30;55.40;;;;;;5073022;28;20040;-61
2023/05/29 02:51:27;;;;;;;3.55;1.02;;;21.20;55.30;;;;;;5072742;28;20083;-61
2023/05/29 02:53:53;;;;;;;4.40;1.20;;;21.20;55.40;;;;;;5072207;28;20056;-61
2023/05/29 02:56:18;;;;;;;3.58;0.90;;;21.20;55.40;;;;;;5072786;28;20067;-61
2023/05/29 02:58:45;;;;;;;3.45;0.90;;;21.20;55.40;;;;;;5073147;28;20040;-61
2023/05/29 03:01:10;;;;;;;4.85;1.10;;;21.20;55.30;;;;;;5070734;28;20071;-61
2023/05/29 03:03:36;;;;;;;6.47;1.35;;;21.20;55.40;;;;;;5073025;28;20480;-61
2023/05/29 03:06:01;;;;;;;4.60;1.15;;;21.20;55.40;;;;;;5072610;28;20365;-61
2023/05/29 03:08:28;;;;;;;5.28;1.23;;;21.20;55.40;;;;;;5071822;28;20044;-61
2023/05/29 03:10:54;;;;;;;4.82;1.00;;;21.20;55.40;;;;;;5073064;28;20116;-61
2023/05/29 03:13:20;;;;;;;6.05;1.20;;;21.20;55.30;;;;;;5072658;28;20044;-61
2023/05/29 03:15:45;;;;;;;4.30;1.20;;;21.20;55.30;;;;;;5071783;28;20037;-61
2023/05/29 03:18:11;;;;;;;5.85;1.30;;;21.20;55.40;;;;;;5072302;28;20101;-61
2023/05/29 03:20:37;;;;;;;3.72;0.98;;;21.20;55.40;;;;;;5072770;28;20040;-61
2023/05/29 03:23:02;;;;;;;6.32;1.23;;;21.10;55.30;;;;;;5071995;28;20040;-61
2023/05/29 03:25:29;;;;;;;5.22;1.20;;;21.10;55.30;;;;;;5072527;28;20388;-61
2023/05/29 03:27:55;;;;;;;5.85;1.40;;;21.10;55.30;;;;;;5072445;28;20053;-61
2023/05/29 03:30:21;;;;;;;4.43;1.00;;;21.10;55.30;;;;;;5071476;28;20071;-61
2023/05/29 03:32:46;;;;;;;5.30;1.10;;;21.10;55.30;;;;;;5072588;28;20063;-61
2023/05/29 03:35:12;;;;;;;5.35;1.00;;;21.10;55.30;;;;;;5071100;28;20044;-61
2023/05/29 03:37:37;;;;;;;3.88;1.15;;;21.10;55.30;;;;;;5071638;28;20385;-61
2023/05/29 03:40:04;;;;;;;5.40;0.90;;;21.10;55.30;;;;;;5072762;28;20044;-61
2023/05/29 03:42:31;;;;;;;4.80;1.13;;;21.10;55.30;;;;;;5071879;28;20440;-61
2023/05/29 03:44:56;;;;;;;3.35;1.05;;;21.00;55.20;;;;;;5072403;28;20119;-61
2023/05/29 03:47:22;;;;;;;5.15;1.13;;;21.00;55.20;;;;;;5072032;28;20132;-61
2023/05/29 03:49:48;;;;;;;3.83;0.90;;;21.10;55.30;;;;;;5071678;28;20039;-61
2023/05/29 03:52:13;;;;;;;4.45;1.13;;;21.00;55.20;;;;;;5072614;28;20484;-61
2023/05/29 03:54:39;;;;;;;5.78;1.38;;;21.10;55.30;;;;;;5076526;28;20078;-61
2023/05/29 03:57:06;;;;;;;4.70;1.02;;;21.10;55.30;;;;;;5075777;28;20044;-61
2023/05/29 03:59:32;;;;;;;6.32;1.40;;;21.10;55.30;;;;;;5076464;28;20119;-61
2023/05/29 04:01:57;;;;;;;4.13;1.02;;;21.00;55.20;;;;;;5075828;28;20131;-60
2023/05/29 04:04:23;;;;;;;4.93;1.15;;;21.00;55.20;;;;;;5074932;28;20577;-61
2023/05/29 04:06:48;;;;;;;4.50;1.20;;;21.00;55.20;;;;;;5074638;28;20476;-61
2023/05/29 04:09:14;;;;;;;5.82;1.13;;;21.00;55.30;;;;;;5075961;28;20048;-61
2023/05/29 04:11:41;;;;;;;6.72;1.50;;;21.00;55.20;;;;;;5074300;28;20040;-61
2023/05/29 04:14:07;;;;;;;4.25;1.13;;;21.00;55.30;;;;;;5076012;28;20048;-61
2023/05/29 04:16:32;;;;;;;3.78;1.10;;;21.00;55.20;;;;;;5076166;28;20041;-61
2023/05/29 04:18:58;;;;;;;6.07;1.38;;;21.00;55.30;;;;;;5075089;28;20036;-61
2023/05/29 04:21:23;;;;;;;3.60;1.15;;;21.00;55.30;;;;;;5075542;28;20044;-61
2023/05/29 04:23:49;;;;;;;3.97;0.95;;;21.00;55.30;;;;;;5074812;28;20040;-61
2023/05/29 04:26:14;;;;;;;4.05;1.02;;;21.00;55.30;;;;;;5074720;28;20395;-61
2023/05/29 04:28:40;;;;;;;3.95;1.17;;;21.00;55.30;;;;;;5074340;28;20048;-61
2023/05/29 04:31:05;;;;;;;4.40;1.05;;;21.00;55.30;;;;;;5075240;28;20050;-61
2023/05/29 04:33:32;;;;;;;5.40;1.30;;;21.00;55.30;;;;;;5074824;28;20127;-61
2023/05/29 04:36:00;;;;;;;6.78;1.05;;;20.90;55.30;;;;;;5074382;28;20040;-61
2023/05/29 04:38:26;;;;;;;5.72;1.17;;;21.00;55.30;;;;;;5075430;28;20048;-61
2023/05/29 04:40:52;;;;;;;3.65;1.10;;;21.00;55.30;;;;;;5074767;28;20055;-61
2023/05/29 04:43:18;;;;;;;5.68;1.15;;;21.00;55.30;;;;;;5073924;28;20044;-61
2023/05/29 04:45:44;;;;;;;3.20;1.05;;;21.00;55.30;;;;;;5075360;28;20048;-61
2023/05/29 04:48:09;;;;;;;3.35;1.00;;;21.00;55.30;;;;;;5074576;28;20040;-61
2023/05/29 04:50:36;;;;;;;3.25;0.90;;;21.00;55.30;;;;;;5075333;28;20037;-61
2023/05/29 04:53:02;;;;;;;5.20;1.20;;;21.00;55.30;;;;;;5074848;28;20090;-61
2023/05/29 04:55:27;;;;;;;2.67;0.88;;;21.00;55.30;;;;;;5074966;28;20048;-61
2023/05/29 04:57:53;;;;;;;4.10;1.00;;;21.00;55.40;;;;;;5075204;28;20036;-61
2023/05/29 05:00:19;;;;;;;4.22;1.10;;;21.00;55.40;;;;;;5074351;28;20040;-61
2023/05/29 05:02:45;;;;;;;4.30;1.15;;;21.00;55.40;;;;;;5073448;28;20041;-61
2023/05/29 05:05:11;;;;;;;2.95;0.88;;;21.00;55.40;;;;;;5074714;28;20045;-61
2023/05/29 05:07:36;;;;;;;5.15;1.10;;;21.00;55.40;;;;;;5074381;28;20094;-61
2023/05/29 05:10:03;;;;;;;5.20;1.10;;;21.10;55.50;;;;;;5075089;28;20404;-61
2023/05/29 05:12:28;;;;;;;4.38;1.10;;;21.00;55.40;;;;;;5074734;28;20037;-61
2023/05/29 05:14:54;;;;;;;4.53;1.15;;;21.00;55.40;;;;;;5074330;28;20453;-61
2023/05/29 05:17:20;;;;;;;4.72;1.00;;;21.00;55.40;;;;;;5074539;28;20052;-61
2023/05/29 05:19:45;;;;;;;4.75;1.05;;;21.00;55.30;;;;;;5074871;28;20032;-61
2023/05/29 05:22:11;;;;;;;4.05;0.85;;;21.10;55.40;;;;;;5073891;28;20063;-61
2023/05/29 05:24:37;;;;;;;6.32;1.10;;;21.10;55.30;;;;;;5074745;28;20037;-61
2023/05/29 05:27:04;;;;;;;3.55;0.75;;;21.10;55.20;;;;;;5074594;28;20056;-61
2023/05/29 05:29:29;;;;;;;4.68;1.30;;;21.10;55.20;;;;;;5072324;28;20045;-61
2023/05/29 05:31:55;;;;;;;6.47;1.02;;;21.10;55.20;;;;;;5074761;28;20055;-61
2023/05/29 05:34:21;;;;;;;4.57;1.10;;;21.10;55.20;;;;;;5073957;28;20044;-61
2023/05/29 05:36:46;;;;;;;6.40;1.38;;;21.10;55.10;;;;;;5073595;28;20045;-61
2023/05/29 05:39:12;;;;;;;5.93;1.33;;;21.20;55.20;;;;;;5074229;28;20040;-61
2023/05/29 05:41:37;;;;;;;3.63;1.10;;;21.20;55.10;;;;;;5073008;28;20048;-61
2023/05/29 05:44:03;;;;;;;5.82;1.10;;;21.20;55.20;;;;;;5073628;28;20045;-61
2023/05/29 05:46:29;;;;;;;3.80;0.82;;;21.20;55.20;;;;;;5073946;28;20075;-61
2023/05/29 05:48:57;;;;;;;5.18;1.30;;;21.20;55.10;;;;;;5073983;28;20048;-61
2023/05/29 05:51:23;;;;;;;5.45;0.88;;;21.20;55.10;;;;;;5073253;28;20048;-61
2023/05/29 05:53:49;;;;;;;5.22;1.17;;;21.20;55.10;;;;;;5073109;28;20041;-61
2023/05/29 05:56:15;;;;;;;4.50;1.30;;;21.20;55.10;;;;;;5071780;28;20045;-61
2023/05/29 05:58:41;;;;;;;4.68;1.20;;;21.20;55.10;;;;;;5074272;28;20033;-61
2023/05/29 06:01:08;;;;;;;3.95;1.10;;;21.20;55.10;;;;;;5073585;28;20496;-61
2023/05/29 06:03:34;;;;;;;5.53;1.00;;;21.20;55.10;;;;;;5073001;28;20044;-61
2023/05/29 06:05:59;;;;;;;3.80;1.13;;;21.20;55.10;;;;;;5073638;28;20037;-61
2023/05/29 06:08:25;;;;;;;4.57;1.17;;;21.30;55.20;;;;;;5072240;28;20052;-61
2023/05/29 06:10:51;;;;;;;4.13;1.25;;;21.20;55.10;;;;;;5071760;28;20047;-61
2023/05/29 06:13:17;;;;;;;4.35;1.10;;;21.20;55.10;;;;;;5073409;28;20040;-61
2023/05/29 06:15:43;;;;;;;4.43;0.95;;;21.20;55.10;;;;;;5073010;28;20048;-61
2023/05/29 06:18:08;;;;;;;5.38;1.10;;;21.20;55.20;;;;;;5072439;28;20041;-61
2023/05/29 06:20:34;;;;;;;4.55;0.90;;;21.30;55.20;;;;;;5073344;28;20051;-61
2023/05/29 06:22:59;;;;;;;4.88;1.10;;;21.20;55.10;;;;;;5073610;28;20043;-61
2023/05/29 06:25:32;;;;;;;3.28;0.85;;;21.30;55.20;;;;;;5072667;28;20047;-61
2023/05/29 06:28:01;;;;;;;6.13;1.20;;;21.30;55.10;;;;;;5072020;28;20052;-61
2023/05/29 06:30:27;;;;;;;3.78;0.90;;;21.30;55.10;;;;;;5073188;28;20047;-61
2023/05/29 06:32:53;;;;;;;4.57;1.20;;;21.30;55.10;;;;;;5072755;28;20037;-61
2023/05/29 06:35:18;;;;;;;3.42;0.85;;;21.30;55.10;;;;;;5072987;28;20123;-61
2023/05/29 06:37:45;;;;;;;3.22;1.00;;;21.30;55.10;;;;;;5073228;28;20051;-61
2023/05/29 06:40:12;;;;;;;6.18;1.15;;;21.30;55.10;;;;;;5070962;28;20045;-61
2023/05/29 06:42:37;;;;;;;5.72;0.93;;;21.30;55.10;;;;;;5071912;28;20454;-61
2023/05/29 06:45:03;;;;;;;3.97;1.08;;;21.30;55.00;;;;;;5072982;28;20071;-61
2023/05/29 06:47:29;;;;;;;4.28;0.93;;;21.30;55.00;;;;;;5072217;28;20511;-61
2023/05/29 06:49:54;;;;;;;5.05;1.13;;;21.30;55.00;;;;;;5072910;28;20135;-61
2023/05/29 06:52:20;;;;;;;4.85;0.95;;;21.30;54.90;;;;;;5072963;28;20134;-61
2023/05/29 06:54:46;;;;;;;3.67;0.85;;;21.30;54.90;;;;;;5072478;28;20063;-61
2023/05/29 06:57:11;;;;;;;6.00;1.30;;;21.30;54.90;;;;;;5072657;28;20049;-61
2023/05/29 06:59:37;;;;;;;5.38;1.30;;;21.30;54.90;;;;;;5072167;28;20121;-61
2023/05/29 07:02:03;;;;;;;4.68;1.10;;;21.30;54.90;;;;;;5073131;28;20049;-60
2023/05/29 07:04:29;;;;;;;6.03;1.10;;;21.30;54.90;;;;;;5072711;28;20046;-60
2023/05/29 07:06:54;;;;;;;6.50;1.25;;;21.30;54.80;;;;;;5072238;28;20075;-61
2023/05/29 07:09:20;;;;;;;4.30;1.08;;;21.30;54.80;;;;;;5072573;28;20051;-61
2023/05/29 07:11:45;;;;;;;5.45;1.27;;;21.30;54.70;;;;;;5072838;28;20044;-61
2023/05/29 07:14:11;;;;;;;5.35;1.30;;;21.40;54.80;;;;;;5071560;28;20070;-61
2023/05/29 07:16:36;;;;;;;3.95;1.08;;;21.40;54.70;;;;;;5072559;28;20044;-60
2023/05/29 07:19:02;;;;;;;5.00;1.13;;;21.40;54.60;;;;;;5072625;28;20131;-61
2023/05/29 07:21:27;;;;;;;4.10;1.00;;;21.40;54.60;;;;;;5071678;28;20480;-60
2023/05/29 07:23:53;;;;;;;4.75;1.00;;;21.40;54.60;;;;;;5072826;28;20044;-60
2023/05/29 07:26:18;;;;;;;4.40;1.25;;;21.40;54.60;;;;;;5072282;28;20044;-60
2023/05/29 07:28:44;;;;;;;3.88;1.10;;;21.40;54.50;;;;;;5071582;28;20044;-60
2023/05/29 07:31:10;;;;;;;3.10;0.93;;;21.40;54.50;;;;;;5071004;28;20546;-61
2023/05/29 07:33:35;;;;;;;3.85;1.17;;;21.40;54.40;;;;;;5071336;28;20040;-61
2023/05/29 07:36:01;;;;;;;4.78;1.00;;;21.50;54.40;;;;;;5071769;28;20042;-61
2023/05/29 07:38:26;;;;;;;6.60;0.90;;;21.50;54.30;;;;;;5072518;28;20460;-60
2023/05/29 07:40:52;;;;;;;3.38;0.95;;;21.50;54.40;;;;;;5072670;28;20377;-61
2023/05/29 07:43:17;;;;;;;5.97;0.95;;;21.50;54.30;;;;;;5071615;28;20438;-61
2023/05/29 07:45:43;;;;;;;4.72;1.10;;;21.50;54.30;;;;;;5071021;28;20049;-61
2023/05/29 07:48:08;;;;;;;4.70;1.00;;;21.50;54.30;;;;;;5072214;28;20051;-60
2023/05/29 07:50:34;;;;;;;5.20;1.02;;;21.50;54.30;;;;;;5071734;28;20072;-61
2023/05/29 07:53:00;;;;;;;5.35;1.20;;;21.50;54.30;;;;;;5072416;28;20550;-60
2023/05/29 07:55:25;;;;;;;4.60;1.20;;;21.50;54.40;;;;;;5071894;28;20048;-60
2023/05/29 07:57:51;;;;;;;4.53;1.00;;;21.50;54.30;;;;;;5071505;28;20089;-61
2023/05/29 08:00:17;;;;;;;3.60;1.10;;;21.60;54.40;;;;;;5071892;28;20049;-61
2023/05/29 08:02:43;;;;;;;5.72;1.08;;;21.50;54.40;;;;;;5072374;28;20123;-61
2023/05/29 08:05:09;;;;;;;5.90;1.13;;;21.60;54.40;;;;;;5070015;28;20052;-61
2023/05/29 08:07:35;;;;;;;5.10;0.93;;;21.50;54.30;;;;;;5070786;28;20067;-61
2023/05/29 08:10:00;;;;;;;5.88;1.33;;;21.60;54.40;;;;;;5071775;28;20032;-61
2023/05/29 08:12:26;;;;;;;6.18;1.27;;;21.60;54.40;;;;;;5071976;28;20047;-61
2023/05/29 08:14:51;;;;;;;6.10;1.20;;;21.60;54.30;;;;;;5071897;28;20052;-61
2023/05/29 08:17:17;;;;;;;4.30;1.10;;;21.60;54.30;;;;;;5071184;28;20123;-61
2023/05/29 08:19:42;;;;;;;5.50;1.20;;;21.60;54.30;;;;;;5072307;28;20059;-61
2023/05/29 08:22:12;;;;;;;4.20;1.17;;;21.60;54.30;;;;;;5071745;28;20052;-61
2023/05/29 08:24:37;;;;;;;5.50;1.40;;;21.60;54.20;;;;;;5071523;28;20076;-61
2023/05/29 08:27:03;;;;;;;5.22;1.10;;;21.60;54.20;;;;;;5071818;28;20091;-61
2023/05/29 08:29:29;;;;;;;5.53;1.20;;;21.60;54.90;;;;;;5071660;28;20102;-61
2023/05/29 08:31:55;;;;;;;4.97;1.60;;;21.60;54.10;;;;;;5071145;28;20492;-61
2023/05/29 08:34:20;;;;;;;5.38;1.40;;;21.60;54.10;;;;;;5071922;28;20045;-61
2023/05/29 08:36:46;;;;;;;8.80;1.33;;;21.70;54.20;;;;;;5071925;28;20040;-61
2023/05/29 08:39:13;;;;;;;4.13;1.10;;;21.60;54.00;;;;;;5088547;28;20043;-61
2023/05/29 08:41:54;;;;;;;5.25;1.33;;;21.70;54.10;;;;;;5075450;28;20116;-61
2023/05/29 08:44:22;;;;;;;6.53;1.23;;;21.70;54.10;;;;;;5075434;28;20044;-61
2023/05/29 08:46:51;;;;;;;5.43;1.38;;;21.70;54.00;;;;;;5075012;28;20079;-61
2023/05/29 08:49:17;;;;;;;5.55;1.20;;;21.70;54.00;;;;;;5073889;28;20082;-61
2023/05/29 08:51:43;;;;;;;6.15;1.30;;;21.70;53.90;;;;;;5073954;28;20044;-61
2023/05/29 08:54:10;;;;;;;5.13;1.42;;;21.70;53.80;;;;;;5073146;28;20115;-61
2023/05/29 08:56:35;;;;;;;5.78;1.73;;;21.70;53.80;;;;;;5074168;28;20089;-61
2023/05/29 08:59:02;;;;;;;4.55;1.40;;;21.70;53.70;;;;;;5075044;28;20131;-60
2023/05/29 09:01:27;;;;;;;5.90;1.65;;;21.80;53.80;;;;;;5074889;28;20093;-61
2023/05/29 09:03:54;;;;;;;3.20;1.05;;;21.80;53.70;;;;;;5073734;28;20044;-61
2023/05/29 09:06:21;;;;;;;6.38;1.40;;;21.80;53.60;;;;;;5074086;28;20130;-61
2023/05/29 09:08:47;;;;;;;5.50;1.40;;;21.80;53.60;;;;;;5074765;28;20048;-60
2023/05/29 09:11:12;;;;;;;6.35;1.48;;;21.80;53.50;;;;;;5074534;28;20047;-60
2023/05/29 09:13:38;;;;;;;6.22;1.42;;;21.80;53.50;;;;;;5073281;28;20124;-60
2023/05/29 09:16:03;;;;;;;4.55;1.38;;;21.80;53.40;;;;;;5074799;28;20048;-60
2023/05/29 09:18:30;;;;;;;4.60;1.27;;;21.90;53.50;;;;;;5074819;28;20141;-60
2023/05/29 09:20:57;;;;;;;4.50;1.20;;;21.80;53.40;;;;;;5072737;28;20054;-60
2023/05/29 09:23:22;;;;;;;6.95;1.42;;;21.90;53.40;;;;;;5074312;28;20476;-60
2023/05/29 09:25:52;;;;;;;4.78;1.40;;;21.90;53.40;;;;;;5073558;28;20040;-60
2023/05/29 09:28:18;;;;;;;6.15;1.70;;;21.90;53.30;;;;;;5073361;28;20118;-60
2023/05/29 09:30:44;;;;;;;5.32;1.25;;;21.90;53.30;;;;;;5056673;28;20480;-60
2023/05/29 09:33:11;;;;;;;5.70;1.50;;;21.90;53.30;;;;;;5074437;28;20044;-60
2023/05/29 09:35:41;;;;;;;7.57;1.70;;;21.90;53.20;;;;;;5073726;28;20098;-60
2023/05/29 09:38:07;;;;;;;4.38;1.10;;;21.90;53.20;;;;;;5074008;28;20048;-60
2023/05/29 09:40:34;;;;;;;4.78;1.15;;;22.00;53.20;;;;;;5073308;28;20041;-60
2023/05/29 09:43:09;;;;;;;4.65;1.38;;;21.90;53.20;;;;;;5073599;28;20040;-60
2023/05/29 09:45:42;;;;;;;5.93;1.30;;;21.90;53.10;;;;;;5074477;28;20051;-60
2023/05/29 09:48:12;;;;;;;5.50;1.30;;;21.90;53.10;;;;;;5074199;28;20067;-60
2023/05/29 09:50:37;;;;;;;6.65;1.40;;;22.00;53.10;;;;;;5073345;28;20052;-60
2023/05/29 09:53:03;;;;;;;4.95;1.27;;;21.90;53.10;;;;;;5074246;28;20100;-60
2023/05/29 09:55:31;;;;;;;5.63;1.38;;;21.90;53.00;;;;;;5073195;28;20472;-60
2023/05/29 09:57:57;;;;;;;4.95;1.20;;;21.90;53.00;;;;;;5074228;28;20545;-60
2023/05/29 10:00:23;;;;;;;5.45;1.48;;;21.90;53.00;;;;;;5072719;28;20087;-60
2023/05/29 10:02:48;;;;;;;5.65;1.30;;;21.90;53.00;;;;;;5073375;28;20142;-60
2023/05/29 10:05:15;;;;;;;4.30;1.25;;;21.90;53.00;;;;;;5073295;28;20037;-60
2023/05/29 10:07:44;;;;;;;6.15;1.30;;;21.90;53.00;;;;;;5073979;28;20048;-60
2023/05/29 10:10:10;;;;;;;6.50;1.60;;;21.90;53.00;;;;;;5071498;28;20060;-60
2023/05/29 10:12:38;;;;;;;7.18;1.80;;;21.90;53.00;;;;;;5072771;28;20041;-60
2023/05/29 10:15:05;;;;;;;;;;;22.00;53.00;;;;;;5056409;28;20045;-60
2023/05/29 10:17:32;;;;;;;7.75;1.48;;;21.90;53.00;;;;;;5071559;28;19920;-60
2023/05/29 10:19:58;;;;;;;5.38;0.93;;;21.90;53.00;;;;;;5073655;28;20495;-60
2023/05/29 10:22:25;;;;;;;5.88;1.40;;;21.90;53.00;;;;;;5072281;28;20048;-60
2023/05/29 10:24:50;;;;;;;4.90;1.20;;;21.90;53.60;;;;;;5073117;28;20483;-60
2023/05/29 10:27:16;;;;;;;5.70;1.40;;;21.90;52.90;;;;;;5071927;28;20088;-60
2023/05/29 10:29:43;;;;;;;5.68;1.40;;;22.00;53.00;;;;;;5073621;28;20132;-60
2023/05/29 10:32:41;;;;;;;5.18;1.52;;;22.00;53.00;;;;;;5070973;28;20377;-60
2023/05/29 10:35:19;;;;;;;5.10;1.30;;;22.00;53.00;;;;;;5072006;28;20048;-61
2023/05/29 10:37:47;;;;;;;5.18;1.45;;;21.90;52.90;;;;;;5071620;28;20044;-61
2023/05/29 10:40:12;;;;;;;6.20;1.33;;;22.00;52.90;;;;;;5072982;28;20037;-61
2023/05/29 10:42:48;;;;;;;5.55;1.48;;;22.00;52.90;;;;;;5073074;28;20040;-61
2023/05/29 10:45:30;;;;;;;5.20;1.40;;;22.00;52.90;;;;;;5072310;28;20491;-61
2023/05/29 10:47:55;;;;;;;5.30;1.50;;;22.00;52.90;;;;;;5073216;28;20048;-60
2023/05/29 10:50:40;;;;;;;4.28;1.30;;;22.00;53.60;;;;;;5072853;28;20051;-60
2023/05/29 10:53:23;;;;;;;5.60;1.15;;;22.00;52.90;;;;;;5070560;28;20051;-61
2023/05/29 10:55:48;;;;;;;5.38;1.60;;;22.00;52.90;;;;;;5073291;28;20036;-61
2023/05/29 10:58:24;;;;;;;8.45;1.85;;;22.00;52.90;;;;;;5071273;28;20487;-61
2023/05/29 11:00:50;;;;;;;5.28;1.25;;;22.00;52.90;;;;;;5070548;28;20041;-61
2023/05/29 11:03:34;;;;;;;5.78;1.60;;;22.00;52.80;;;;;;5072558;28;20040;-61
2023/05/29 11:06:13;;;;;;;6.60;1.38;;;22.00;52.90;;;;;;5071803;28;20381;-61
2023/05/29 11:08:54;;;;;;;5.85;1.40;;;22.00;52.80;;;;;;5073076;28;20051;-61
2023/05/29 11:11:36;;;;;;;5.53;1.30;;;22.00;52.80;;;;;;5072698;28;20040;-61
2023/05/29 11:14:05;;;;;;;5.15;1.50;;;22.00;52.80;;;;;;5071881;28;20048;-61
2023/05/29 11:16:32;;;;;;;6.10;1.35;;;22.00;52.80;;;;;;5072959;28;20062;-61
2023/05/29 11:18:58;;;;;;;4.88;1.77;;;22.00;52.70;;;;;;5072725;28;20385;-61
2023/05/29 11:21:44;;;;;;;4.65;1.35;;;22.10;52.70;;;;;;5071518;28;20043;-61
2023/05/29 11:24:23;;;;;;;5.97;1.30;;;22.00;52.70;;;;;;5071203;28;20496;-61
2023/05/29 11:26:51;;;;;;;4.47;1.55;;;22.00;52.70;;;;;;5071788;28;20044;-61
2023/05/29 11:29:17;;;;;;;5.72;1.52;;;22.10;52.70;;;;;;5071349;28;20082;-61
2023/05/29 11:31:42;;;;;;;4.18;1.33;;;22.10;52.60;;;;;;5071224;28;20036;-60
2023/05/29 11:34:09;;;;;;;7.38;1.85;;;22.10;52.60;;;;;;5070499;28;20093;-61
2023/05/29 11:36:36;;;;;;;5.65;1.60;;;22.10;52.60;;;;;;5072404;28;20047;-61
2023/05/29 11:39:03;;;;;;;4.00;1.20;;;22.10;52.60;;;;;;5054685;28;20542;-61
2023/05/29 11:41:29;;;;;;;5.53;1.40;;;22.10;52.60;;;;;;5071741;28;20041;-60
2023/05/29 11:44:02;;;;;;;7.13;1.50;;;22.10;52.70;;;;;;5072418;28;20048;-61
2023/05/29 11:46:30;;;;;;;5.07;1.52;;;22.10;52.60;;;;;;5071991;28;20499;-60
2023/05/29 11:48:56;;;;;;;4.68;1.42;;;22.10;52.60;;;;;;5071541;28;20059;-61
2023/05/29 11:51:21;;;;;;;5.07;1.58;;;22.10;52.60;;;;;;5071882;28;20408;-60
2023/05/29 11:53:47;;;;;;;4.63;1.40;;;22.10;52.60;;;;;;5072590;28;20041;-61
2023/05/29 11:56:13;;;;;;;6.50;1.63;;;22.10;52.60;;;;;;5071541;28;20477;-61
2023/05/29 11:58:39;;;;;;;3.67;1.33;;;22.10;52.50;;;;;;5071025;28;20488;-61
2023/05/29 12:01:08;;;;;;;5.55;1.60;;;22.10;52.50;;;;;;5072211;28;20131;-61
2023/05/29 12:03:40;;;;;;;7.03;1.40;;;22.10;52.50;;;;;;5071645;28;20063;-61
2023/05/29 12:06:07;;;;;;;7.57;1.80;;;22.10;52.50;;;;;;5070411;28;20044;-61
2023/05/29 12:08:33;;;;;;;5.53;1.40;;;22.10;52.50;;;;;;5072317;28;20050;-60
2023/05/29 12:10:58;;;;;;;7.05;1.52;;;22.10;52.50;;;;;;5071599;28;20036;-61
2023/05/29 12:13:24;;;;;;;4.80;1.13;;;22.20;52.50;;;;;;5072878;28;20097;-60
2023/05/29 12:15:55;;;;;;;6.15;1.50;;;22.10;52.40;;;;;;5074663;28;20045;-60
2023/05/29 12:18:20;;;;;;;6.07;1.65;;;22.10;52.40;;;;;;5073852;28;20045;-60
2023/05/29 12:20:46;;;;;;;6.68;1.67;;;22.20;52.40;;;;;;5074736;28;20056;-60
2023/05/29 12:23:12;;;;;;;3.78;1.30;;;22.20;52.40;;;;;;5073868;28;20045;-60
2023/05/29 12:25:37;;;;;;;6.07;1.40;;;22.20;52.40;;;;;;5074623;28;20129;-60
2023/05/29 12:28:03;;;;;;;5.00;1.50;;;22.20;52.40;;;;;;5074217;28;20133;-61
2023/05/29 12:30:28;;;;;;;4.15;1.33;;;22.20;52.40;;;;;;5074937;28;20494;-60
2023/05/29 12:32:54;;;;;;;4.68;1.50;;;22.20;52.40;;;;;;5075566;28;20442;-60
2023/05/29 12:35:20;;;;;;;4.47;1.40;;;22.20;52.40;;;;;;5075383;28;20036;-61
2023/05/29 12:37:46;;;;;;;4.13;1.75;;;22.20;52.40;;;;;;5074925;28;20044;-61
2023/05/29 12:40:23;;;;;;;5.97;1.38;;;22.20;52.40;;;;;;5075329;28;20098;-61
2023/05/29 12:42:49;;;;;;;5.22;1.50;;;22.20;52.40;;;;;;5075630;28;20123;-61
2023/05/29 12:45:17;;;;;;;5.90;1.50;;;22.20;52.40;;;;;;5074645;28;20103;-60
2023/05/29 12:48:06;;;;;;;4.40;1.40;;;22.20;52.40;;;;;;5075463;28;20076;-61